Time;durP1;ratioP1;P1;durP2;ratioP2;P2;SDS_P1;SDS_P2;PMS_P1;PMS_P2;Temp;Humidity;BMP_temperature;BMP_pressure;BME280_temperature;BME280_humidity;BME280_pressure;Samples;Min_cycle;Max_cycle;Signal;HPM_P1;HPM_P2
2023/07/12 00:00:20;;;;;;;8.27;3.22;;;18.30;99.90;;;;;;6246651;23;20016;-61
2023/07/12 00:02:47;;;;;;;5.05;3.10;;;18.30;99.90;;;;;;6246697;23;20346;-62
2023/07/12 00:05:14;;;;;;;5.35;3.20;;;18.30;99.90;;;;;;6245797;23;20024;-63
2023/07/12 00:07:45;;;;;;;4.78;2.97;;;18.20;99.90;;;;;;6246259;23;20450;-62
2023/07/12 00:10:14;;;;;;;;;;;18.20;99.90;;;;;;6246892;23;20027;-63
2023/07/12 00:12:42;;;;;;;4.30;2.72;;;18.20;99.90;;;;;;6243427;23;19915;-62
2023/07/12 00:15:12;;;;;;;6.40;3.00;;;18.20;99.90;;;;;;6244535;23;20028;-63
2023/07/12 00:17:39;;;;;;;3.88;2.97;;;18.20;99.90;;;;;;6246486;23;20074;-62
2023/07/12 00:20:18;;;;;;;5.25;3.33;;;18.20;99.90;;;;;;6245664;23;20020;-62
2023/07/12 00:22:45;;;;;;;5.97;3.25;;;18.20;99.90;;;;;;6246365;23;20082;-61
2023/07/12 00:25:13;;;;;;;4.30;3.00;;;18.20;99.90;;;;;;6246386;23;20020;-62
2023/07/12 00:27:40;;;;;;;4.93;3.15;;;18.10;99.90;;;;;;6245598;23;20031;-62
2023/07/12 00:30:16;;;;;;;4.53;2.72;;;18.10;99.90;;;;;;6246250;23;20020;-67
2023/07/12 00:32:43;;;;;;;6.50;3.08;;;18.10;99.90;;;;;;6245619;23;20020;-66
2023/07/12 00:35:16;;;;;;;5.00;3.00;;;18.10;99.90;;;;;;6244227;23;20024;-66
2023/07/12 00:37:43;;;;;;;5.45;3.35;;;18.10;99.90;;;;;;6244416;23;20112;-67
2023/07/12 00:40:36;;;;;;;4.85;3.03;;;18.00;99.90;;;;;;6245414;23;20016;-67
2023/07/12 00:43:10;;;;;;;5.18;3.05;;;18.00;99.90;;;;;;6239466;23;20028;-67
2023/07/12 00:45:40;;;;;;;7.55;3.10;;;18.00;99.90;;;;;;6244195;23;20020;-67
2023/07/12 00:48:12;;;;;;;7.90;3.25;;;18.00;99.90;;;;;;6243760;23;20024;-67
2023/07/12 00:50:40;;;;;;;4.70;3.33;;;18.00;99.90;;;;;;6246113;23;20024;-67
2023/07/12 00:53:13;;;;;;;8.07;3.42;;;18.00;99.90;;;;;;6244411;23;20074;-67
2023/07/12 00:56:01;;;;;;;6.53;2.72;;;18.00;99.90;;;;;;6245316;23;20086;-61
2023/07/12 00:58:33;;;;;;;4.47;2.85;;;18.00;99.90;;;;;;6244274;23;20028;-61
2023/07/12 01:01:03;;;;;;;4.60;3.00;;;17.90;99.90;;;;;;6243499;23;20442;-61
2023/07/12 01:03:34;;;;;;;6.43;3.42;;;17.90;99.90;;;;;;6246196;23;20024;-61
2023/07/12 01:06:01;;;;;;;;;;;17.90;99.90;;;;;;6246509;23;20027;-61
2023/07/12 01:08:29;;;;;;;5.07;2.92;;;17.90;99.90;;;;;;6245065;23;19967;-61
2023/07/12 01:10:58;;;;;;;6.72;3.13;;;17.90;99.90;;;;;;6245878;23;20094;-61
2023/07/12 01:13:25;;;;;;;4.47;3.17;;;17.90;99.90;;;;;;6243614;23;20035;-67
2023/07/12 01:15:53;;;;;;;9.30;3.20;;;17.90;99.90;;;;;;6243175;23;20299;-66
2023/07/12 01:18:21;;;;;;;6.80;3.70;;;17.90;99.90;;;;;;6246009;23;20048;-67
2023/07/12 01:20:53;;;;;;;5.68;3.30;;;17.90;99.90;;;;;;6243749;23;20016;-62
2023/07/12 01:23:20;;;;;;;6.25;3.63;;;17.90;99.90;;;;;;6245090;23;20028;-61
2023/07/12 01:25:47;;;;;;;4.95;3.22;;;17.90;99.90;;;;;;6245418;23;20024;-61
2023/07/12 01:28:14;;;;;;;8.52;3.42;;;17.90;99.90;;;;;;6245804;23;20043;-61
2023/07/12 01:30:41;;;;;;;6.95;3.10;;;17.80;99.90;;;;;;6244217;23;20020;-61
2023/07/12 01:33:08;;;;;;;7.60;4.05;;;17.80;99.90;;;;;;6245226;23;20027;-61
2023/07/12 01:35:36;;;;;;;5.82;3.47;;;17.80;99.90;;;;;;6245604;23;20028;-61
2023/07/12 01:38:04;;;;;;;5.40;2.97;;;17.80;99.90;;;;;;6244531;22;20099;-62
2023/07/12 01:40:31;;;;;;;6.70;3.30;;;17.80;99.90;;;;;;6245722;22;20017;-61
2023/07/12 01:42:58;;;;;;;6.80;3.58;;;17.70;99.90;;;;;;6244268;23;20397;-61
2023/07/12 01:45:25;;;;;;;6.22;4.00;;;17.70;99.90;;;;;;6243782;23;20464;-62
2023/07/12 01:47:51;;;;;;;7.10;3.90;;;17.70;99.90;;;;;;6245346;23;20043;-62
2023/07/12 01:50:18;;;;;;;6.97;3.30;;;17.60;99.90;;;;;;6244836;23;20086;-61
2023/07/12 01:52:45;;;;;;;5.70;3.58;;;17.60;99.90;;;;;;6243642;23;20082;-62
2023/07/12 01:55:14;;;;;;;8.02;3.45;;;17.60;99.90;;;;;;6245570;23;20031;-63
2023/07/12 01:57:41;;;;;;;8.90;4.05;;;17.60;99.90;;;;;;6242869;23;20074;-63
2023/07/12 02:00:09;;;;;;;7.03;3.83;;;17.50;99.90;;;;;;6245274;23;20027;-62
2023/07/12 02:02:36;;;;;;;11.30;3.80;;;17.50;99.90;;;;;;6245252;23;20059;-61
2023/07/12 02:05:03;;;;;;;4.88;3.55;;;17.50;99.90;;;;;;6242844;23;20032;-61
2023/07/12 02:07:30;;;;;;;6.47;3.67;;;17.50;99.90;;;;;;6245443;23;20028;-61
2023/07/12 02:10:17;;;;;;;8.52;3.80;;;17.50;99.90;;;;;;6245449;23;20034;-61
2023/07/12 02:12:44;;;;;;;9.55;3.95;;;17.50;99.90;;;;;;6244607;23;20020;-61
2023/07/12 02:15:13;;;;;;;8.02;3.78;;;17.50;99.90;;;;;;6245363;23;20027;-62
2023/07/12 02:17:40;;;;;;;8.35;3.60;;;17.40;99.90;;;;;;6243445;23;20024;-62
2023/07/12 02:20:09;;;;;;;9.07;4.22;;;17.40;99.90;;;;;;6244666;23;20024;-62
2023/07/12 02:22:37;;;;;;;8.90;4.22;;;17.50;99.90;;;;;;6245298;23;20030;-62
2023/07/12 02:25:05;;;;;;;8.45;4.65;;;17.40;99.90;;;;;;6242743;23;20413;-61
2023/07/12 02:27:34;;;;;;;7.63;4.40;;;17.40;99.90;;;;;;6245207;22;20020;-61
2023/07/12 02:30:01;;;;;;;8.70;4.35;;;17.40;99.90;;;;;;6243592;23;20074;-61
2023/07/12 02:32:28;;;;;;;13.82;4.50;;;17.40;99.90;;;;;;6244417;23;20035;-62
2023/07/12 02:34:55;;;;;;;11.65;4.60;;;17.40;99.90;;;;;;6245608;23;20124;-62
2023/07/12 02:37:22;;;;;;;11.68;5.32;;;17.40;99.90;;;;;;6247454;23;20024;-62
2023/07/12 02:39:49;;;;;;;8.95;4.65;;;17.40;99.90;;;;;;6246623;23;20024;-61
2023/07/12 02:42:16;;;;;;;9.85;4.65;;;17.40;99.90;;;;;;6246654;23;20466;-61
2023/07/12 02:44:44;;;;;;;7.13;4.50;;;17.40;99.90;;;;;;6247395;23;20104;-61
2023/07/12 02:47:12;;;;;;;10.70;5.10;;;17.40;99.90;;;;;;6246240;22;20027;-61
2023/07/12 02:49:39;;;;;;;10.82;4.50;;;17.40;99.90;;;;;;6247381;23;20020;-61
2023/07/12 02:52:08;;;;;;;11.63;5.07;;;17.30;99.90;;;;;;6247101;23;20377;-61
2023/07/12 02:54:36;;;;;;;9.13;5.00;;;17.30;99.90;;;;;;6246542;22;20031;-61
2023/07/12 02:57:04;;;;;;;7.88;4.80;;;17.20;99.90;;;;;;6245332;23;20473;-61
2023/07/12 02:59:32;;;;;;;13.43;5.03;;;17.20;99.90;;;;;;6247349;23;20026;-61
2023/07/12 03:02:00;;;;;;;11.80;5.20;;;17.10;99.90;;;;;;6246298;23;20453;-61
2023/07/12 03:04:27;;;;;;;10.95;4.90;;;17.10;99.90;;;;;;6247248;23;20028;-59
2023/07/12 03:06:54;;;;;;;10.90;4.35;;;17.10;99.90;;;;;;6246982;22;20338;-61
2023/07/12 03:09:21;;;;;;;11.93;5.20;;;17.00;99.90;;;;;;6244590;23;20051;-61
2023/07/12 03:11:49;;;;;;;11.65;5.07;;;17.00;99.90;;;;;;6246893;23;20031;-61
2023/07/12 03:14:16;;;;;;;16.80;6.28;;;17.00;99.90;;;;;;6246872;23;20020;-61
2023/07/12 03:16:44;;;;;;;13.70;5.13;;;17.00;99.90;;;;;;6245048;23;20047;-61
2023/07/12 03:19:13;;;;;;;15.85;6.07;;;17.00;99.90;;;;;;6247061;23;20043;-61
2023/07/12 03:21:40;;;;;;;13.85;4.95;;;17.00;99.90;;;;;;6246197;23;20024;-62
2023/07/12 03:24:08;;;;;;;12.90;5.70;;;17.00;99.90;;;;;;6246822;23;20028;-62
2023/07/12 03:26:36;;;;;;;13.52;5.28;;;17.00;99.90;;;;;;6246428;23;20024;-62
2023/07/12 03:29:04;;;;;;;13.45;4.85;;;16.90;99.90;;;;;;6245900;23;20023;-61
2023/07/12 03:31:31;;;;;;;8.23;4.68;;;16.90;99.90;;;;;;6244835;23;20024;-62
2023/07/12 03:33:59;;;;;;;12.65;5.10;;;16.90;99.90;;;;;;6244604;23;20039;-62
2023/07/12 03:36:30;;;;;;;13.57;5.75;;;17.00;99.90;;;;;;6245751;23;20373;-61
2023/07/12 03:38:57;;;;;;;;;;;16.90;99.90;;;;;;6245456;23;20024;-61
2023/07/12 03:41:24;;;;;;;7.15;3.90;;;16.90;99.90;;;;;;6245663;23;20333;-61
2023/07/12 03:43:51;;;;;;;9.50;3.88;;;17.00;99.90;;;;;;6241342;23;20470;-61
2023/07/12 03:46:18;;;;;;;10.52;4.65;;;17.20;99.90;;;;;;6245080;23;20028;-61
2023/07/12 03:48:45;;;;;;;9.30;3.97;;;17.30;99.90;;;;;;6243476;23;20020;-62
2023/07/12 03:51:16;;;;;;;12.27;4.85;;;17.40;99.90;;;;;;6244796;23;20051;-61
2023/07/12 03:53:45;;;;;;;17.90;5.25;;;17.40;99.90;;;;;;6243714;23;20112;-62
2023/07/12 03:56:12;;;;;;;10.38;4.90;;;17.60;99.90;;;;;;6245571;23;20347;-61
2023/07/12 03:58:40;;;;;;;11.45;4.63;;;17.60;99.90;;;;;;6245046;23;20074;-62
2023/07/12 04:01:09;;;;;;;9.38;5.47;;;17.60;99.90;;;;;;6245636;23;20024;-62
2023/07/12 04:03:37;;;;;;;14.63;4.60;;;17.60;99.90;;;;;;6244622;23;20438;-62
2023/07/12 04:06:05;;;;;;;13.07;4.70;;;17.50;99.90;;;;;;6245359;23;20024;-62
2023/07/12 04:08:32;;;;;;;19.70;5.55;;;17.70;99.90;;;;;;6243451;23;20067;-62
2023/07/12 04:11:01;;;;;;;10.13;4.20;;;17.70;99.90;;;;;;6244413;23;20078;-62
2023/07/12 04:13:28;;;;;;;15.15;5.13;;;17.60;99.90;;;;;;6245197;22;20024;-62
2023/07/12 04:15:57;;;;;;;11.07;4.90;;;17.60;99.90;;;;;;6245416;22;20020;-62
2023/07/12 04:18:25;;;;;;;13.90;5.45;;;17.50;99.90;;;;;;6244758;23;20027;-61
2023/07/12 04:20:53;;;;;;;11.70;5.20;;;17.80;99.90;;;;;;6242935;23;20477;-62
2023/07/12 04:23:20;;;;;;;14.80;5.15;;;17.70;99.90;;;;;;6243346;23;20060;-61
2023/07/12 04:25:47;;;;;;;14.90;4.50;;;17.70;99.90;;;;;;6242962;23;20032;-62
2023/07/12 04:28:15;;;;;;;12.85;4.90;;;17.60;99.90;;;;;;6244797;23;20024;-62
2023/07/12 04:30:42;;;;;;;15.55;5.45;;;17.60;99.90;;;;;;6245364;23;20024;-62
2023/07/12 04:33:09;;;;;;;18.10;4.97;;;17.50;99.90;;;;;;6243877;23;20078;-62
2023/07/12 04:35:39;;;;;;;10.20;4.72;;;17.50;99.90;;;;;;6243470;23;20024;-62
2023/07/12 04:38:06;;;;;;;12.18;5.95;;;17.50;99.90;;;;;;6242404;23;20024;-62
2023/07/12 04:40:33;;;;;;;13.02;5.00;;;17.60;99.90;;;;;;6244683;23;20032;-61
2023/07/12 04:43:00;;;;;;;16.40;3.90;;;17.60;99.90;;;;;;6242407;23;20465;-61
2023/07/12 04:45:29;;;;;;;20.17;4.75;;;17.50;99.90;;;;;;6243683;23;20082;-60
2023/07/12 04:47:56;;;;;;;15.43;5.20;;;17.40;99.90;;;;;;6244443;23;20031;-62
2023/07/12 04:50:24;;;;;;;11.80;4.88;;;17.40;99.90;;;;;;6243281;23;20082;-61
2023/07/12 04:52:51;;;;;;;14.32;5.00;;;17.50;99.90;;;;;;6243771;23;20385;-61
2023/07/12 04:55:24;;;;;;;14.80;5.32;;;17.40;99.90;;;;;;6245126;23;20028;-62
2023/07/12 04:57:51;;;;;;;18.83;5.10;;;17.40;99.90;;;;;;6242238;23;20029;-62
2023/07/12 05:00:19;;;;;;;16.08;5.07;;;17.40;99.90;;;;;;6242484;23;20336;-62
2023/07/12 05:02:47;;;;;;;14.55;5.05;;;17.40;99.90;;;;;;6242287;23;20016;-61
2023/07/12 05:05:14;;;;;;;11.50;5.72;;;17.50;99.90;;;;;;6243044;23;20024;-62
2023/07/12 05:07:42;;;;;;;11.70;5.85;;;17.50;99.90;;;;;;6230847;23;20462;-61
2023/07/12 05:10:10;;;;;;;18.92;6.38;;;17.50;99.90;;;;;;6241991;23;20035;-61
2023/07/12 05:12:38;;;;;;;11.38;5.47;;;17.50;99.90;;;;;;6244075;23;20411;-66
2023/07/12 05:15:07;;;;;;;16.60;5.93;;;17.60;99.90;;;;;;6244403;23;20031;-62
2023/07/12 05:17:34;;;;;;;12.82;5.35;;;17.60;99.90;;;;;;6242370;23;20028;-61
2023/07/12 05:20:04;;;;;;;17.13;6.25;;;17.80;99.90;;;;;;6244429;22;20454;-62
2023/07/12 05:22:31;;;;;;;16.42;6.00;;;17.90;99.90;;;;;;6243298;23;20016;-61
2023/07/12 05:24:59;;;;;;;18.88;6.30;;;17.90;99.90;;;;;;6243150;23;20028;-61
2023/07/12 05:27:27;;;;;;;10.63;6.32;;;17.90;99.90;;;;;;6244114;23;20346;-61
2023/07/12 05:29:54;;;;;;;16.35;5.80;;;18.00;99.90;;;;;;6243600;23;20090;-61
2023/07/12 05:32:21;;;;;;;11.32;5.82;;;18.10;99.90;;;;;;6244541;23;20034;-61
2023/07/12 05:34:48;;;;;;;12.77;5.07;;;18.20;99.90;;;;;;6244115;23;20024;-62
2023/07/12 05:37:17;;;;;;;11.35;5.68;;;18.30;99.90;;;;;;6242075;23;20027;-62
2023/07/12 05:39:44;;;;;;;12.95;5.70;;;18.40;99.90;;;;;;6244563;22;20024;-62
2023/07/12 05:42:11;;;;;;;15.10;5.68;;;18.50;99.90;;;;;;6242490;23;20024;-62
2023/07/12 05:44:38;;;;;;;12.45;5.68;;;18.60;99.90;;;;;;6244620;23;20099;-61
2023/07/12 05:47:06;;;;;;;14.32;5.57;;;18.70;99.90;;;;;;6242480;23;20098;-62
2023/07/12 05:49:34;;;;;;;14.98;5.85;;;18.80;99.90;;;;;;6243204;22;20070;-62
2023/07/12 05:52:01;;;;;;;16.02;5.90;;;18.80;99.90;;;;;;6242625;23;20059;-61
2023/07/12 05:54:30;;;;;;;13.82;5.32;;;18.70;99.90;;;;;;6242656;23;20024;-62
2023/07/12 05:56:57;;;;;;;14.93;4.90;;;18.70;99.90;;;;;;6243354;23;20055;-62
2023/07/12 05:59:24;;;;;;;10.27;5.53;;;18.50;99.90;;;;;;6242569;23;20075;-62
2023/07/12 06:01:51;;;;;;;8.20;4.47;;;18.40;99.90;;;;;;6242665;23;20024;-62
2023/07/12 06:04:18;;;;;;;18.13;5.85;;;18.40;99.90;;;;;;6243563;23;20350;-61
2023/07/12 06:06:45;;;;;;;16.70;5.82;;;18.20;99.90;;;;;;6245471;23;20050;-61
2023/07/12 06:09:12;;;;;;;16.52;5.60;;;18.20;99.90;;;;;;6245239;22;20030;-62
2023/07/12 06:11:40;;;;;;;15.52;5.53;;;18.20;99.90;;;;;;6242617;23;20024;-62
2023/07/12 06:14:08;;;;;;;16.15;5.35;;;18.20;99.90;;;;;;6245523;22;20024;-61
2023/07/12 06:16:35;;;;;;;15.95;5.40;;;18.30;99.90;;;;;;6243623;23;20030;-61
2023/07/12 06:19:03;;;;;;;15.35;5.72;;;18.60;99.90;;;;;;6244494;22;20024;-61
2023/07/12 06:21:30;;;;;;;13.45;5.68;;;18.60;99.90;;;;;;6245352;23;20354;-62
2023/07/12 06:23:59;;;;;;;13.18;5.32;;;18.70;99.90;;;;;;6244433;23;20024;-62
2023/07/12 06:26:27;;;;;;;11.80;5.28;;;18.80;99.90;;;;;;6242656;23;20039;-61
2023/07/12 06:28:55;;;;;;;11.05;4.68;;;19.00;99.90;;;;;;6245398;23;20103;-60
2023/07/12 06:31:23;;;;;;;11.75;5.75;;;19.10;99.90;;;;;;6244405;23;20027;-62
2023/07/12 06:33:50;;;;;;;18.98;6.07;;;19.20;99.90;;;;;;6245361;23;20016;-61
2023/07/12 06:36:17;;;;;;;21.17;6.18;;;19.40;99.90;;;;;;6245388;23;20021;-61
2023/07/12 06:38:45;;;;;;;15.00;5.68;;;19.30;99.90;;;;;;6244671;22;20028;-61
2023/07/12 06:41:12;;;;;;;16.15;6.13;;;19.50;99.90;;;;;;6243452;23;20109;-61
2023/07/12 06:43:39;;;;;;;13.25;5.32;;;19.50;99.90;;;;;;6244816;23;20032;-61
2023/07/12 06:46:07;;;;;;;14.13;6.25;;;19.60;99.90;;;;;;6244613;22;20020;-61
2023/07/12 06:48:34;;;;;;;14.90;5.68;;;19.60;99.90;;;;;;6245010;23;20516;-61
2023/07/12 06:51:01;;;;;;;14.05;5.40;;;19.90;99.90;;;;;;6243395;23;20085;-61
2023/07/12 06:53:28;;;;;;;13.50;5.45;;;19.90;99.90;;;;;;6242673;23;20031;-62
2023/07/12 06:55:55;;;;;;;12.60;5.43;;;20.00;99.90;;;;;;6243324;23;20035;-62
2023/07/12 06:58:22;;;;;;;12.23;5.60;;;20.40;99.90;;;;;;6245169;23;20027;-62
2023/07/12 07:00:50;;;;;;;14.95;5.55;;;20.70;99.90;;;;;;6244609;22;20027;-62
2023/07/12 07:03:18;;;;;;;12.20;5.47;;;20.80;99.90;;;;;;6245100;23;20458;-61
2023/07/12 07:05:47;;;;;;;16.13;5.57;;;20.70;99.90;;;;;;6245179;23;20026;-62
2023/07/12 07:08:15;;;;;;;9.02;4.93;;;20.90;99.90;;;;;;6244572;23;20074;-61
2023/07/12 07:10:43;;;;;;;14.57;5.18;;;21.20;99.90;;;;;;6245166;23;20024;-62
2023/07/12 07:13:10;;;;;;;14.10;4.70;;;21.60;99.90;;;;;;6244788;23;20032;-62
2023/07/12 07:15:37;;;;;;;10.60;4.78;;;22.10;99.90;;;;;;6244026;23;20466;-62
2023/07/12 07:18:04;;;;;;;10.85;3.83;;;22.40;99.90;;;;;;6244937;23;20110;-61
2023/07/12 07:20:33;;;;;;;10.63;3.97;;;22.80;99.90;;;;;;6245123;23;20030;-63
2023/07/12 07:23:00;;;;;;;12.90;4.55;;;22.70;99.90;;;;;;6247186;23;20324;-62
2023/07/12 07:25:28;;;;;;;14.25;4.10;;;22.00;99.90;;;;;;6246631;23;20074;-61
2023/07/12 07:27:56;;;;;;;12.50;4.22;;;21.90;99.90;;;;;;6244378;23;20028;-61
2023/07/12 07:30:23;;;;;;;12.73;4.50;;;21.70;99.90;;;;;;6246527;23;20535;-61
2023/07/12 07:32:53;;;;;;;11.85;3.83;;;21.60;99.90;;;;;;6246839;22;20024;-62
2023/07/12 07:35:20;;;;;;;15.95;4.10;;;21.40;99.90;;;;;;6246357;23;20152;-62
2023/07/12 07:37:49;;;;;;;12.55;4.10;;;21.50;99.90;;;;;;6247040;23;20354;-61
2023/07/12 07:40:17;;;;;;;13.65;3.92;;;21.50;99.90;;;;;;6245109;23;20080;-62
2023/07/12 07:42:44;;;;;;;14.32;4.20;;;21.30;99.90;;;;;;6245799;22;20016;-62
2023/07/12 07:45:12;;;;;;;14.95;4.22;;;21.70;99.90;;;;;;6246783;23;20024;-62
2023/07/12 07:47:39;;;;;;;15.25;3.80;;;21.90;99.90;;;;;;6246821;23;20071;-62
2023/07/12 07:50:07;;;;;;;12.05;3.28;;;22.00;99.90;;;;;;6246137;22;20039;-63
2023/07/12 07:52:34;;;;;;;10.95;3.50;;;22.10;99.90;;;;;;6246405;23;20024;-62
2023/07/12 07:55:04;;;;;;;9.57;3.20;;;21.80;99.90;;;;;;6244954;23;20024;-61
2023/07/12 07:57:31;;;;;;;8.57;3.08;;;21.50;99.90;;;;;;6244138;23;20470;-61
2023/07/12 08:00:03;;;;;;;11.07;3.58;;;21.40;99.90;;;;;;6246450;23;20031;-61
2023/07/12 08:02:30;;;;;;;8.07;2.92;;;21.40;99.90;;;;;;6244698;23;20027;-62
2023/07/12 08:04:58;;;;;;;12.48;2.60;;;21.00;99.90;;;;;;6244117;23;20034;-62
2023/07/12 08:07:25;;;;;;;6.68;2.42;;;20.80;99.90;;;;;;6246554;23;20030;-62
2023/07/12 08:09:52;;;;;;;7.38;3.13;;;20.60;99.90;;;;;;6244083;23;20020;-61
2023/07/12 08:12:20;;;;;;;8.00;2.97;;;20.50;99.90;;;;;;6244582;23;20024;-61
2023/07/12 08:14:47;;;;;;;6.75;3.15;;;20.40;99.90;;;;;;6244797;23;20024;-61
2023/07/12 08:17:14;;;;;;;8.27;3.38;;;20.20;99.90;;;;;;6244048;23;20055;-61
2023/07/12 08:19:41;;;;;;;13.55;3.90;;;19.70;99.90;;;;;;6244761;23;20023;-61
2023/07/12 08:22:08;;;;;;;13.18;3.80;;;19.30;99.90;;;;;;6246540;23;20020;-62
2023/07/12 08:24:34;;;;;;;8.02;2.85;;;19.20;99.90;;;;;;6246050;23;20035;-62
2023/07/12 08:27:01;;;;;;;8.45;2.65;;;19.00;99.90;;;;;;6246140;23;20031;-63
2023/07/12 08:29:29;;;;;;;5.75;2.60;;;19.00;99.90;;;;;;6244820;23;20036;-62
2023/07/12 08:31:56;;;;;;;4.68;2.15;;;19.00;99.90;;;;;;6243773;23;20020;-62
2023/07/12 08:34:23;;;;;;;4.95;2.38;;;18.90;99.90;;;;;;6244247;23;20493;-61
2023/07/12 08:36:50;;;;;;;6.78;2.53;;;19.10;99.90;;;;;;6246323;23;20020;-61
2023/07/12 08:39:17;;;;;;;6.03;2.30;;;19.50;99.90;;;;;;6243883;23;20027;-61
2023/07/12 08:41:44;;;;;;;9.07;2.58;;;19.80;99.90;;;;;;6246058;23;20024;-61
2023/07/12 08:44:14;;;;;;;6.40;3.20;;;19.90;99.90;;;;;;6245988;23;20038;-62
2023/07/12 08:46:49;;;;;;;7.85;2.72;;;20.00;99.90;;;;;;6243763;23;20420;-61
2023/07/12 08:49:17;;;;;;;6.45;2.78;;;20.00;99.90;;;;;;6244610;23;20032;-62
2023/07/12 08:51:47;;;;;;;11.40;3.55;;;19.90;99.90;;;;;;6246500;22;20081;-62
2023/07/12 08:54:23;;;;;;;9.85;3.42;;;19.90;99.90;;;;;;6243508;23;20066;-62
2023/07/12 08:56:51;;;;;;;9.82;4.20;;;20.00;99.90;;;;;;6246229;23;20350;-62
2023/07/12 08:59:18;;;;;;;8.77;3.00;;;20.10;99.90;;;;;;6245529;22;20028;-62
2023/07/12 09:01:49;;;;;;;10.23;3.28;;;20.20;99.90;;;;;;6244251;23;20421;-61
2023/07/12 09:04:24;;;;;;;11.10;3.53;;;20.30;99.90;;;;;;6244313;23;20422;-62
2023/07/12 09:06:54;;;;;;;13.50;4.00;;;20.50;99.90;;;;;;6243433;23;20023;-62
2023/07/12 09:09:21;;;;;;;9.63;3.45;;;20.60;99.90;;;;;;6246289;23;20028;-62
2023/07/12 09:11:48;;;;;;;9.15;3.33;;;21.20;99.90;;;;;;6246102;23;20059;-62
2023/07/12 09:14:17;;;;;;;10.20;3.95;;;21.40;99.90;;;;;;6244774;23;20544;-61
2023/07/12 09:16:48;;;;;;;8.05;2.95;;;22.30;99.90;;;;;;6245999;23;20024;-60
2023/07/12 09:19:19;;;;;;;6.93;2.58;;;23.00;99.90;;;;;;6246144;22;20027;-61
2023/07/12 09:21:49;;;;;;;7.20;2.88;;;23.50;99.90;;;;;;6243508;23;20078;-61
2023/07/12 09:24:23;;;;;;;8.63;2.53;;;24.00;99.90;;;;;;6246035;23;20023;-61
2023/07/12 09:26:51;;;;;;;7.07;2.72;;;23.60;99.90;;;;;;6244297;23;20036;-62
2023/07/12 09:29:21;;;;;;;6.57;2.85;;;23.30;99.90;;;;;;6245428;23;20020;-62
2023/07/12 09:31:51;;;;;;;8.43;2.35;;;23.60;99.90;;;;;;6245900;23;20027;-62
2023/07/12 09:34:24;;;;;;;5.43;2.35;;;23.30;99.90;;;;;;6245248;23;20020;-62
2023/07/12 09:36:57;;;;;;;7.45;2.22;;;22.90;99.90;;;;;;6243959;23;20027;-61
2023/07/12 09:39:25;;;;;;;4.63;2.45;;;22.60;99.90;;;;;;6244011;23;20410;-61
2023/07/12 09:41:56;;;;;;;7.53;2.30;;;22.90;99.90;;;;;;6244656;23;20028;-62
2023/07/12 09:44:24;;;;;;;5.22;2.33;;;23.40;99.90;;;;;;6245616;23;20024;-62
2023/07/12 09:46:58;;;;;;;5.28;2.50;;;24.00;99.90;;;;;;6243963;23;20031;-62
2023/07/12 09:49:33;;;;;;;7.20;2.55;;;24.60;99.90;;;;;;6243228;23;20468;-62
2023/07/12 09:52:09;;;;;;;6.85;2.72;;;25.00;99.90;;;;;;6245700;23;20443;-62
2023/07/12 09:54:47;;;;;;;8.27;2.47;;;25.10;99.90;;;;;;6243912;23;20100;-62
2023/07/12 09:57:18;;;;;;;5.78;2.10;;;25.40;99.90;;;;;;6244747;23;20020;-62
2023/07/12 09:59:57;;;;;;;6.72;1.95;;;25.70;99.90;;;;;;6245782;23;20024;-62
2023/07/12 10:02:36;;;;;;;6.22;2.15;;;25.70;99.90;;;;;;6243089;23;20031;-62
2023/07/12 10:05:08;;;;;;;3.80;1.60;;;25.50;99.90;;;;;;6243844;23;20031;-62
2023/07/12 10:07:52;;;;;;;5.53;1.85;;;25.80;99.90;;;;;;6245717;22;20028;-62
2023/07/12 10:10:26;;;;;;;6.65;2.67;;;25.90;99.90;;;;;;6245030;23;20094;-62
2023/07/12 10:13:18;;;;;;;4.65;1.52;;;26.40;99.90;;;;;;6245176;23;20485;-61
2023/07/12 10:15:46;;;;;;;4.15;1.90;;;26.40;99.90;;;;;;6245741;22;20024;-62
2023/07/12 10:18:18;;;;;;;6.00;1.73;;;26.70;99.90;;;;;;6242359;23;20032;-62
2023/07/12 10:20:47;;;;;;;3.78;1.80;;;26.70;99.90;;;;;;6244258;23;20028;-63
2023/07/12 10:23:15;;;;;;;7.88;2.00;;;26.00;99.90;;;;;;6245542;22;20027;-63
2023/07/12 10:25:46;;;;;;;6.32;1.70;;;26.00;99.90;;;;;;6243219;23;20024;-62
2023/07/12 10:28:22;;;;;;;4.90;1.58;;;26.40;99.90;;;;;;6245223;23;20024;-62
2023/07/12 10:30:51;;;;;;;4.32;1.60;;;26.60;99.20;;;;;;6244803;23;20031;-61
2023/07/12 10:33:24;;;;;;;3.63;1.67;;;26.90;99.80;;;;;;6243568;23;20062;-63
2023/07/12 10:35:56;;;;;;;4.88;1.70;;;27.00;97.60;;;;;;6243610;23;20051;-62
2023/07/12 10:38:25;;;;;;;5.78;1.80;;;27.60;99.10;;;;;;6244649;23;20062;-61
2023/07/12 10:40:57;;;;;;;7.33;2.30;;;27.30;97.60;;;;;;6243669;23;20093;-62
2023/07/12 10:43:32;;;;;;;4.93;2.00;;;26.80;98.30;;;;;;6244758;23;20728;-62
2023/07/12 10:46:04;;;;;;;4.90;1.90;;;26.50;98.50;;;;;;6243127;23;20028;-62
2023/07/12 10:48:33;;;;;;;7.68;2.20;;;26.80;98.40;;;;;;6245016;23;20027;-62
2023/07/12 10:51:18;;;;;;;4.13;1.57;;;26.90;98.40;;;;;;6245442;23;20020;-62
2023/07/12 10:53:50;;;;;;;3.42;1.58;;;26.70;96.90;;;;;;6244608;22;20020;-62
2023/07/12 10:56:19;;;;;;;5.28;1.83;;;26.60;97.50;;;;;;6245963;23;20024;-62
2023/07/12 10:58:49;;;;;;;4.53;1.75;;;26.90;97.80;;;;;;6244909;23;20024;-62
2023/07/12 11:01:36;;;;;;;5.63;1.67;;;26.80;97.40;;;;;;6247598;23;20028;-62
2023/07/12 11:04:10;;;;;;;10.52;2.10;;;26.70;97.30;;;;;;6245342;23;20052;-62
2023/07/12 11:06:54;;;;;;;5.78;1.50;;;27.10;97.50;;;;;;6244739;23;20028;-62
2023/07/12 11:09:21;;;;;;;3.85;1.38;;;27.40;97.00;;;;;;6247471;23;20024;-62
2023/07/12 11:11:51;;;;;;;6.85;1.88;;;27.60;96.80;;;;;;6246972;23;20027;-61
2023/07/12 11:14:27;;;;;;;4.28;1.67;;;27.40;96.50;;;;;;6246212;23;20027;-62
2023/07/12 11:17:20;;;;;;;6.90;1.40;;;26.90;95.70;;;;;;6246959;22;20482;-63
2023/07/12 11:20:08;;;;;;;5.15;1.70;;;27.50;96.20;;;;;;6242200;23;20032;-62
2023/07/12 11:22:57;;;;;;;4.50;1.23;;;27.80;95.70;;;;;;6247052;23;20035;-63
2023/07/12 11:25:32;;;;;;;3.10;1.40;;;27.90;93.20;;;;;;6247249;23;20016;-62
2023/07/12 11:28:02;;;;;;;3.75;1.10;;;28.30;93.00;;;;;;6246360;23;20020;-62
2023/07/12 11:30:43;;;;;;;8.35;1.92;;;28.40;92.80;;;;;;6246759;23;20024;-63
2023/07/12 11:33:18;;;;;;;4.38;1.42;;;28.40;92.30;;;;;;6245100;23;20031;-62
2023/07/12 11:35:50;;;;;;;4.43;1.45;;;28.00;93.20;;;;;;6246310;23;20031;-62
2023/07/12 11:38:19;;;;;;;5.03;1.20;;;28.20;93.60;;;;;;6246999;23;20460;-62
2023/07/12 11:40:51;;;;;;;4.15;0.80;;;28.30;92.70;;;;;;6247015;23;20020;-62
2023/07/12 11:43:34;;;;;;;3.42;1.10;;;28.90;92.20;;;;;;6246463;23;20401;-61
2023/07/12 11:46:03;;;;;;;3.17;0.80;;;28.90;90.90;;;;;;6245095;23;20020;-63
2023/07/12 11:48:31;;;;;;;;;;;29.10;90.10;;;;;;6244787;23;20399;-63
2023/07/12 11:51:03;;;;;;;2.20;0.73;;;28.70;86.30;;;;;;6245031;23;19981;-62
2023/07/12 11:53:30;;;;;;;3.58;0.82;;;28.90;87.00;;;;;;6246828;23;20027;-62
2023/07/12 11:55:57;;;;;;;2.20;0.90;;;28.70;87.70;;;;;;6244160;23;20023;-63
2023/07/12 11:58:26;;;;;;;12.05;1.27;;;28.60;88.30;;;;;;6244782;23;20078;-62
2023/07/12 12:00:57;;;;;;;2.95;0.80;;;28.30;87.80;;;;;;6246965;22;20024;-62
2023/07/12 12:03:24;;;;;;;3.25;1.15;;;28.50;86.00;;;;;;6244154;23;20032;-62
2023/07/12 12:05:52;;;;;;;4.10;1.27;;;28.20;86.50;;;;;;6246659;23;20381;-61
2023/07/12 12:08:24;;;;;;;4.38;1.10;;;28.10;85.80;;;;;;6244056;23;20020;-62
2023/07/12 12:10:52;;;;;;;5.18;0.90;;;28.40;87.20;;;;;;6245609;23;20446;-62
2023/07/12 12:13:31;;;;;;;6.75;0.90;;;28.90;86.90;;;;;;6246562;23;20020;-62
2023/07/12 12:16:06;;;;;;;2.92;1.00;;;28.60;84.80;;;;;;6246002;23;20024;-62
2023/07/12 12:18:35;;;;;;;3.90;0.95;;;28.80;85.40;;;;;;6244666;23;20024;-62
2023/07/12 12:21:04;;;;;;;3.38;0.88;;;29.40;86.80;;;;;;6246591;23;20395;-63
2023/07/12 12:23:34;;;;;;;;;;;29.00;84.00;;;;;;6245906;22;20028;-62
2023/07/12 12:26:06;;;;;;;4.82;0.80;;;28.90;82.70;;;;;;6246602;23;19915;-62
2023/07/12 12:28:37;;;;;;;2.25;0.70;;;29.00;85.40;;;;;;6246520;23;20397;-62
2023/07/12 12:31:07;;;;;;;4.68;1.33;;;28.80;85.30;;;;;;6244054;23;20134;-62
2023/07/12 12:33:34;;;;;;;5.82;1.00;;;28.80;84.70;;;;;;6245958;23;20085;-62
2023/07/12 12:36:04;;;;;;;2.72;1.17;;;28.10;85.50;;;;;;6246020;23;20070;-62
2023/07/12 12:38:32;;;;;;;;;;;28.30;87.40;;;;;;6244246;23;20074;-63
2023/07/12 12:41:10;;;;;;;3.42;0.90;;;28.40;85.60;;;;;;6246357;23;19965;-63
2023/07/12 12:43:38;;;;;;;4.28;0.98;;;28.60;84.50;;;;;;6244345;23;20032;-63
2023/07/12 12:46:11;;;;;;;6.18;1.60;;;28.70;84.60;;;;;;6245565;22;20077;-63
2023/07/12 12:48:38;;;;;;;7.03;0.98;;;28.70;85.40;;;;;;6245907;22;20512;-62
2023/07/12 12:51:05;;;;;;;5.93;1.05;;;29.20;84.00;;;;;;6244387;23;20035;-62
2023/07/12 12:53:32;;;;;;;2.83;0.80;;;28.80;84.20;;;;;;6246163;23;20032;-62